createdAt,value
2022-09-10T00:01:14.447Z,65.35
2022-09-10T00:04:17.919Z,65.89
2022-09-10T00:07:19.940Z,66.27
2022-09-10T00:10:22.463Z,66.23
2022-09-10T00:13:24.489Z,66.67
2022-09-10T00:16:28.009Z,66.71
2022-09-10T00:19:31.517Z,66.66
2022-09-10T00:22:34.530Z,65.96
2022-09-10T00:25:36.856Z,65.99
2022-09-10T00:28:38.946Z,66.60
2022-09-10T00:31:41.019Z,66.36
2022-09-10T00:34:43.133Z,65.71
2022-09-10T00:37:45.347Z,65.03
2022-09-10T00:40:47.382Z,65.07
2022-09-10T00:43:56.837Z,64.86
2022-09-10T00:46:59.442Z,65.65
2022-09-10T00:50:15.699Z,64.64
2022-09-10T00:53:22.364Z,65.01
2022-09-10T00:56:24.585Z,65.47
2022-09-10T00:59:27.214Z,64.89
2022-09-10T01:02:29.403Z,65.62
2022-09-10T01:05:32.865Z,65.23
2022-09-10T01:08:34.921Z,65.78
2022-09-10T01:11:57.841Z,65.81
2022-09-10T01:15:05.721Z,65.53
2022-09-10T01:18:13.397Z,65.83
2022-09-10T01:21:26.587Z,65.78
2022-09-10T01:25:00.928Z,65.07
2022-09-10T01:28:09.084Z,64.62
2022-09-10T01:31:24.006Z,64.59
2022-09-10T01:34:32.945Z,64.51
2022-09-10T01:37:37.866Z,64.43
2022-09-10T01:40:42.110Z,64.44
2022-09-10T01:43:47.121Z,64.94
2022-09-10T01:46:59.918Z,64.94
2022-09-10T01:50:04.971Z,64.88
2022-09-10T01:53:31.110Z,65.46
2022-09-10T01:56:35.712Z,64.46
2022-09-10T02:00:09.436Z,64.48
2022-09-10T02:03:20.775Z,64.68
2022-09-10T02:06:29.781Z,65.09
2022-09-10T02:09:33.754Z,65.18
2022-09-10T02:12:37.066Z,65.35
2022-09-10T02:16:04.386Z,65.39
2022-09-10T02:19:17.301Z,65.09
2022-09-10T02:22:25.034Z,65.01
2022-09-10T02:25:33.866Z,64.90
2022-09-10T02:28:38.717Z,64.04
2022-09-10T02:31:42.087Z,63.90
2022-09-10T02:34:48.404Z,63.88
2022-09-10T02:37:51.179Z,63.98
2022-09-10T02:40:53.175Z,63.82
2022-09-10T02:43:55.621Z,64.77
2022-09-10T02:46:58.788Z,64.34
2022-09-10T02:50:02.128Z,64.47
2022-09-10T02:53:04.318Z,64.91
2022-09-10T02:56:07.922Z,64.51
2022-09-10T02:59:11.575Z,64.26
2022-09-10T03:02:13.979Z,64.32
2022-09-10T03:05:16.738Z,64.33
2022-09-10T03:08:18.780Z,64.28
2022-09-10T03:11:24.203Z,64.16
2022-09-10T03:14:30.368Z,64.08
2022-09-10T03:17:33.375Z,64.20
2022-09-10T03:20:36.509Z,64.53
2022-09-10T03:23:40.409Z,63.91
2022-09-10T03:26:44.595Z,64.33
2022-09-10T03:29:47.663Z,64.17
2022-09-10T03:32:50.468Z,64.22
2022-09-10T03:35:54.486Z,64.13
2022-09-10T03:38:59.253Z,65.29
2022-09-10T03:42:04.461Z,65.10
2022-09-10T03:45:07.416Z,64.86
2022-09-10T03:48:09.602Z,65.20
2022-09-10T03:51:11.951Z,64.76
2022-09-10T03:54:15.215Z,64.73
2022-09-10T03:57:18.451Z,64.79
2022-09-10T04:00:21.490Z,64.89
2022-09-10T04:03:24.633Z,64.38
2022-09-10T04:06:27.282Z,64.32
2022-09-10T04:09:32.684Z,64.51
2022-09-10T04:12:36.496Z,63.91
2022-09-10T04:15:38.807Z,64.49
2022-09-10T04:18:40.954Z,63.93
2022-09-10T04:21:43.202Z,63.89
2022-09-10T04:24:45.448Z,64.04
2022-09-10T04:27:47.975Z,64.48
2022-09-10T04:30:51.145Z,64.26
2022-09-10T04:33:53.758Z,65.08
2022-09-10T04:36:59.206Z,64.57
2022-09-10T04:40:02.696Z,64.83
2022-09-10T04:43:06.196Z,65.17
2022-09-10T04:46:13.477Z,65.17
2022-09-10T04:49:17.817Z,65.21
2022-09-10T04:52:23.316Z,65.44
2022-09-10T04:55:27.885Z,65.42
2022-09-10T04:58:34.291Z,65.14
2022-09-10T05:01:40.669Z,64.47
2022-09-10T05:04:42.935Z,64.48
2022-09-10T05:07:45.222Z,65.01
2022-09-10T05:10:47.225Z,64.12
2022-09-10T05:13:50.088Z,64.35
2022-09-10T05:16:56.563Z,64.90
2022-09-10T05:19:58.596Z,64.93
2022-09-10T05:23:00.721Z,65.11
2022-09-10T05:26:04.020Z,65.24
2022-09-10T05:29:06.861Z,65.82
2022-09-10T05:32:09.667Z,66.10
2022-09-10T05:35:11.897Z,66.34
2022-09-10T05:38:16.532Z,66.05
2022-09-10T05:41:19.758Z,65.84
2022-09-10T05:44:24.263Z,66.54
2022-09-10T05:47:28.382Z,65.70
2022-09-10T05:50:30.779Z,66.06
2022-09-10T05:53:33.904Z,65.23
2022-09-10T05:56:36.053Z,65.24
2022-09-10T05:59:38.028Z,65.25
2022-09-10T06:02:41.886Z,64.90
2022-09-10T06:05:58.002Z,65.48
2022-09-10T06:09:04.662Z,65.40
2022-09-10T06:12:17.448Z,65.61
2022-09-10T06:15:21.327Z,65.85
2022-09-10T06:18:25.683Z,65.85
2022-09-10T06:21:29.565Z,66.07
2022-09-10T06:24:33.050Z,66.49
2022-09-10T06:27:35.597Z,66.80
2022-09-10T06:30:39.823Z,68.14
2022-09-10T06:33:44.894Z,71.25
2022-09-10T06:36:52.020Z,63.83
2022-09-10T06:39:55.461Z,58.82
2022-09-10T06:43:01.850Z,61.31
2022-09-10T06:47:30.487Z,66.14
2022-09-10T06:50:00.250Z,63.01
2022-09-10T06:53:02.898Z,65.92
2022-09-10T06:56:11.268Z,67.28
2022-09-10T06:59:14.937Z,67.11
2022-09-10T07:02:21.014Z,67.38
2022-09-10T07:05:26.231Z,67.61
2022-09-10T07:08:28.718Z,67.49
2022-09-10T07:11:32.666Z,68.85
2022-09-10T07:14:37.002Z,69.13
2022-09-10T07:17:42.730Z,70.97
2022-09-10T07:20:47.367Z,70.48
2022-09-10T07:23:55.591Z,71.52
2022-09-10T07:26:58.877Z,70.21
2022-09-10T07:30:02.467Z,72.04
2022-09-10T07:33:04.772Z,71.12
2022-09-10T07:36:08.527Z,71.25
2022-09-10T07:39:12.079Z,72.96
2022-09-10T07:42:18.174Z,72.73
2022-09-10T07:45:23.012Z,72.75
2022-09-10T07:48:27.645Z,70.21
2022-09-10T07:51:30.935Z,70.88
2022-09-10T07:54:36.799Z,70.97
2022-09-10T07:57:40.719Z,71.56
2022-09-10T08:00:45.506Z,72.15
2022-09-10T08:03:48.757Z,71.40
2022-09-10T08:06:53.269Z,69.36
2022-09-10T08:09:55.607Z,68.48
2022-09-10T08:12:59.847Z,70.71
2022-09-10T08:16:06.498Z,69.69
2022-09-10T08:19:10.398Z,70.70
2022-09-10T08:22:14.537Z,69.05
2022-09-10T08:25:23.792Z,69.79
2022-09-10T08:28:27.718Z,69.35
2022-09-10T08:31:33.867Z,70.53
2022-09-10T08:34:42.734Z,69.24
2022-09-10T08:37:46.764Z,70.29
2022-09-10T08:40:51.296Z,69.65
2022-09-10T08:44:03.656Z,69.26
2022-09-10T08:47:22.120Z,69.95
2022-09-10T08:50:49.016Z,68.28
2022-09-10T08:54:00.461Z,67.87
2022-09-10T08:57:03.974Z,68.21
2022-09-10T09:00:11.053Z,67.54
2022-09-10T09:03:26.755Z,67.13
2022-09-10T09:06:50.594Z,66.06
2022-09-10T09:09:54.626Z,66.04
2022-09-10T09:13:33.030Z,64.98
2022-09-10T09:17:07.062Z,64.89
2022-09-10T09:20:33.033Z,63.95
2022-09-10T09:24:12.229Z,64.65
2022-09-10T09:27:21.345Z,64.31
2022-09-10T09:30:35.766Z,63.86
2022-09-10T09:33:39.351Z,63.97
2022-09-10T09:36:49.204Z,63.91
2022-09-10T09:40:04.295Z,63.38
2022-09-10T09:43:34.894Z,62.78
2022-09-10T09:46:36.849Z,63.57
2022-09-10T09:49:40.862Z,63.80
2022-09-10T09:52:44.438Z,63.58
2022-09-10T09:55:51.743Z,63.01
2022-09-10T09:58:53.813Z,62.66
2022-09-10T10:02:01.146Z,62.46
2022-09-10T10:05:08.011Z,63.15
2022-09-10T10:08:54.522Z,62.95
2022-09-10T10:11:57.906Z,63.72
2022-09-10T10:15:01.270Z,63.28
2022-09-10T10:18:35.925Z,62.76
2022-09-10T10:21:37.960Z,63.25
2022-09-10T10:24:40.424Z,63.17
2022-09-10T10:27:44.183Z,63.94
2022-09-10T10:30:52.398Z,63.37
2022-09-10T10:34:19.711Z,64.07
2022-09-10T10:37:35.331Z,63.35
2022-09-10T10:40:48.764Z,63.72
2022-09-10T10:44:15.901Z,64.41
2022-09-10T10:47:48.928Z,63.55
2022-09-10T10:51:18.346Z,64.07
2022-09-10T10:54:34.446Z,63.71
2022-09-10T10:58:15.277Z,63.67
2022-09-10T11:01:25.811Z,62.65
2022-09-10T11:04:46.753Z,61.90
2022-09-10T11:07:49.303Z,62.41
2022-09-10T11:11:01.080Z,61.60
2022-09-10T11:14:22.027Z,60.72
2022-09-10T11:17:49.475Z,61.07
2022-09-10T11:21:12.647Z,61.53
2022-09-10T11:24:20.704Z,61.67
2022-09-10T11:27:32.424Z,61.53
2022-09-10T11:30:35.467Z,61.55
2022-09-10T11:33:47.493Z,61.73
2022-09-10T11:36:59.906Z,61.41
2022-09-10T11:40:11.002Z,61.77
2022-09-10T11:43:45.824Z,62.16
2022-09-10T11:47:00.810Z,61.47
2022-09-10T11:50:11.104Z,61.04
2022-09-10T11:53:19.421Z,61.12
2022-09-10T11:56:21.448Z,62.60
2022-09-10T11:59:33.371Z,61.78
2022-09-10T12:03:03.663Z,61.97
2022-09-10T12:06:23.870Z,61.89
2022-09-10T12:09:37.886Z,61.74
2022-09-10T12:12:43.467Z,62.29
2022-09-10T12:15:59.989Z,61.60
2022-09-10T12:19:07.669Z,61.20
2022-09-10T12:22:18.798Z,60.78
2022-09-10T12:25:20.766Z,60.78
2022-09-10T12:28:41.401Z,61.63
2022-09-10T12:32:08.403Z,60.41
2022-09-10T12:35:32.822Z,60.40
2022-09-10T12:38:50.212Z,60.51
2022-09-10T12:41:53.187Z,60.09
2022-09-10T12:44:56.334Z,60.77
2022-09-10T12:47:58.458Z,59.83
2022-09-10T12:51:26.340Z,60.68
2022-09-10T12:54:50.985Z,59.74
2022-09-10T12:58:24.313Z,60.32
2022-09-10T13:01:29.211Z,60.17
2022-09-10T13:04:35.966Z,60.18
2022-09-10T13:07:41.820Z,59.58
2022-09-10T13:10:50.091Z,59.73
2022-09-10T13:13:59.605Z,60.48
2022-09-10T13:17:02.660Z,59.52
2022-09-10T13:20:23.656Z,59.21
2022-09-10T13:23:45.217Z,59.02
2022-09-10T13:26:50.588Z,59.32
2022-09-10T13:30:18.877Z,59.58
2022-09-10T13:33:24.758Z,59.55
2022-09-10T13:36:37.868Z,59.76
2022-09-10T13:39:48.981Z,59.90
2022-09-10T13:43:12.685Z,59.08
2022-09-10T13:46:28.501Z,59.10
2022-09-10T13:49:37.955Z,59.42
2022-09-10T13:52:43.520Z,58.60
2022-09-10T13:56:14.401Z,59.28
2022-09-10T13:59:28.911Z,59.46
2022-09-10T14:02:47.717Z,59.48
2022-09-10T14:05:54.316Z,59.23
2022-09-10T14:08:59.869Z,59.57
2022-09-10T14:12:06.690Z,59.60
2022-09-10T14:15:17.275Z,59.45
2022-09-10T14:18:20.466Z,59.64
2022-09-10T14:21:28.121Z,60.57
2022-09-10T14:24:33.685Z,59.42
2022-09-10T14:27:39.428Z,59.33
2022-09-10T14:30:42.713Z,59.31
2022-09-10T14:33:44.874Z,60.23
2022-09-10T14:36:47.155Z,59.50
2022-09-10T14:39:49.425Z,60.92
2022-09-10T14:42:51.421Z,60.26
2022-09-10T14:45:54.375Z,61.25
2022-09-10T14:48:59.111Z,61.32
2022-09-10T14:52:03.594Z,61.83
2022-09-10T14:55:05.870Z,61.34
2022-09-10T14:58:07.889Z,60.90
2022-09-10T15:01:09.912Z,61.01
2022-09-10T15:04:17.632Z,61.59
2022-09-10T15:07:19.807Z,61.03
2022-09-10T15:10:22.048Z,61.77
2022-09-10T15:13:24.134Z,61.48
2022-09-10T15:16:26.372Z,62.35
2022-09-10T15:19:28.705Z,61.92
2022-09-10T15:22:31.829Z,62.11
2022-09-10T15:25:46.667Z,61.85
2022-09-10T15:28:48.645Z,61.73
2022-09-10T15:31:51.580Z,61.57
2022-09-10T15:34:53.547Z,61.73
2022-09-10T15:37:55.495Z,61.71
2022-09-10T15:41:11.281Z,62.12
2022-09-10T15:44:14.588Z,62.34
2022-09-10T15:47:16.742Z,62.25
2022-09-10T15:50:18.752Z,61.67
2022-09-10T15:53:20.832Z,61.83
2022-09-10T15:56:27.225Z,61.90
2022-09-10T15:59:29.348Z,62.35
2022-09-10T16:02:31.395Z,62.70
2022-09-10T16:05:35.540Z,62.84
2022-09-10T16:08:37.795Z,62.74
2022-09-10T16:11:41.615Z,63.36
2022-09-10T16:14:44.809Z,63.42
2022-09-10T16:17:46.750Z,63.55
2022-09-10T16:20:48.684Z,63.55
2022-09-10T16:23:53.566Z,63.74
2022-09-10T16:26:55.611Z,63.74
2022-09-10T16:29:57.533Z,63.80
2022-09-10T16:32:59.557Z,63.43
2022-09-10T16:36:07.122Z,63.67
2022-09-10T16:39:12.573Z,63.19
2022-09-10T16:42:14.755Z,63.36
2022-09-10T16:45:16.946Z,63.43
2022-09-10T16:48:19.173Z,63.21
2022-09-10T16:51:25.862Z,63.27
2022-09-10T16:54:30.175Z,63.83
2022-09-10T16:57:32.323Z,63.33
2022-09-10T17:00:34.315Z,63.53
2022-09-10T17:03:42.991Z,64.01
2022-09-10T17:06:46.223Z,64.16
2022-09-10T17:09:48.158Z,65.86
2022-09-10T17:12:50.035Z,67.20
2022-09-10T17:15:53.445Z,64.88
2022-09-10T17:19:17.843Z,65.05
2022-09-10T17:22:19.886Z,65.88
2022-09-10T17:25:21.998Z,68.06
2022-09-10T17:28:24.210Z,68.22
2022-09-10T17:31:27.821Z,68.83
2022-09-10T17:34:29.998Z,69.27
2022-09-10T17:37:32.456Z,69.98
2022-09-10T17:40:38.757Z,71.27
2022-09-10T17:43:42.672Z,70.97
2022-09-10T17:46:46.267Z,70.99
2022-09-10T17:49:48.410Z,71.34
2022-09-10T17:52:51.250Z,72.01
2022-09-10T17:55:53.446Z,71.87
2022-09-10T17:59:01.803Z,72.28
2022-09-10T18:02:04.124Z,72.31
2022-09-10T18:05:07.811Z,71.55
2022-09-10T18:08:10.399Z,71.59
2022-09-10T18:11:17.605Z,71.08
2022-09-10T18:14:20.771Z,71.34
2022-09-10T18:17:22.843Z,71.03
2022-09-10T18:20:28.474Z,71.82
2022-09-10T18:23:30.479Z,71.71
2022-09-10T18:26:36.094Z,71.46
2022-09-10T18:29:41.584Z,71.80
2022-09-10T18:32:43.867Z,71.76
2022-09-10T18:35:47.854Z,71.24
2022-09-10T18:38:50.005Z,71.96
2022-09-10T18:41:52.569Z,72.24
2022-09-10T18:44:54.543Z,72.74
2022-09-10T18:47:56.657Z,71.83
2022-09-10T18:51:05.405Z,71.78
2022-09-10T18:54:07.748Z,72.88
2022-09-10T18:57:10.013Z,73.18
2022-09-10T19:00:12.580Z,72.62
2022-09-10T19:03:14.584Z,72.46
2022-09-10T19:06:19.863Z,72.27
2022-09-10T19:09:27.225Z,72.50
2022-09-10T19:12:29.440Z,72.38
2022-09-10T19:15:32.043Z,71.38
2022-09-10T19:18:34.660Z,71.65
2022-09-10T19:21:36.930Z,71.41
2022-09-10T19:24:55.560Z,71.99
2022-09-10T19:27:58.140Z,72.46
2022-09-10T19:31:04.086Z,72.56
2022-09-10T19:34:08.119Z,71.34
2022-09-10T19:37:10.077Z,72.07
2022-09-10T19:40:12.603Z,72.39
2022-09-10T19:43:14.595Z,71.59
2022-09-10T19:46:18.937Z,72.13
2022-09-10T19:49:22.366Z,71.94
2022-09-10T19:52:25.363Z,71.59
2022-09-10T19:55:27.314Z,71.13
2022-09-10T19:58:29.901Z,70.72
2022-09-10T20:01:33.186Z,70.41
2022-09-10T20:04:35.781Z,70.37
2022-09-10T20:07:37.774Z,69.89
2022-09-10T20:10:39.849Z,69.06
2022-09-10T20:13:42.054Z,69.37
2022-09-10T20:16:45.348Z,68.95
2022-09-10T20:19:47.905Z,69.17
2022-09-10T20:22:50.816Z,68.66
2022-09-10T20:25:52.829Z,68.85
2022-09-10T20:29:00.911Z,69.12
2022-09-10T20:32:03.130Z,68.84
2022-09-10T20:35:05.799Z,68.93
2022-09-10T20:38:07.743Z,69.55
2022-09-10T20:41:12.079Z,69.64
2022-09-10T20:44:16.320Z,69.69
2022-09-10T20:47:18.293Z,70.10
2022-09-10T20:50:20.508Z,70.12
2022-09-10T20:53:22.862Z,69.87
2022-09-10T20:56:25.057Z,69.74
2022-09-10T20:59:27.946Z,69.38
2022-09-10T21:02:30.187Z,69.61
2022-09-10T21:05:32.356Z,69.68
2022-09-10T21:08:35.747Z,69.19
2022-09-10T21:11:38.281Z,69.46
2022-09-10T21:14:40.345Z,69.38
2022-09-10T21:17:42.348Z,69.31
2022-09-10T21:20:44.391Z,69.13
2022-09-10T21:23:50.918Z,69.37
2022-09-10T21:26:53.758Z,69.89
2022-09-10T21:29:55.743Z,69.44
2022-09-10T21:32:57.789Z,69.71
2022-09-10T21:36:08.253Z,69.78
2022-09-10T21:39:17.764Z,69.75
2022-09-10T21:42:19.782Z,70.35
2022-09-10T21:45:25.698Z,72.22
2022-09-10T21:48:29.934Z,72.77
2022-09-10T21:51:32.624Z,71.18
2022-09-10T21:54:34.954Z,70.01
2022-09-10T21:57:37.382Z,68.32
2022-09-10T22:00:39.575Z,67.20
2022-09-10T22:03:41.797Z,66.77
2022-09-10T22:06:44.028Z,67.04
2022-09-10T22:09:46.001Z,67.17
2022-09-10T22:12:48.049Z,66.29
2022-09-10T22:15:51.427Z,66.63
2022-09-10T22:18:56.368Z,66.95
2022-09-10T22:21:58.625Z,67.24
2022-09-10T22:25:01.325Z,67.67
2022-09-10T22:28:03.928Z,67.69
2022-09-10T22:31:22.264Z,67.44
2022-09-10T22:34:24.749Z,68.88
2022-09-10T22:37:26.784Z,68.44
2022-09-10T22:40:29.658Z,68.95
2022-09-10T22:43:31.666Z,69.50
2022-09-10T22:46:34.513Z,69.91
2022-09-10T22:49:37.295Z,69.66
2022-09-10T22:52:39.315Z,69.61
2022-09-10T22:55:41.340Z,70.31
2022-09-10T22:58:44.570Z,70.61
2022-09-10T23:01:47.764Z,70.83
2022-09-10T23:04:51.296Z,70.96
2022-09-10T23:07:53.365Z,70.95
2022-09-10T23:10:55.374Z,70.96
2022-09-10T23:14:01.500Z,71.45
2022-09-10T23:17:04.170Z,71.57
2022-09-10T23:20:07.290Z,71.34
2022-09-10T23:23:09.200Z,71.76
2022-09-10T23:26:11.488Z,71.47
2022-09-10T23:29:15.216Z,72.60
2022-09-10T23:32:17.075Z,72.14
2022-09-10T23:35:19.039Z,72.90
2022-09-10T23:38:21.499Z,72.88
2022-09-10T23:41:23.788Z,72.92
2022-09-10T23:44:26.298Z,72.51
2022-09-10T23:47:28.406Z,73.21
2022-09-10T23:50:30.618Z,73.15
2022-09-10T23:53:33.109Z,73.47
2022-09-10T23:56:35.438Z,73.80
2022-09-10T23:59:37.640Z,73.79
